Historyczne dane pomiarowe

Dodano dane terminowe – wersja testowa.

Dane z okresu 1951-2019

Wersja bazy: 1.34 [2019-03-16, lista zmian], aktualizacja planowana na 2019-04-15

Dane meteo z obszaru Polski uzyskane na podstawie danych udostępnionych przez Instytut Meteorologii i Gospodarki Wodnej – Państwowy Instytut Badawczy.

 

Wybierz Datę:    

       

TemperaturaWilgotnośćWiatrCiśnienieOpadyŚniegCzas trwania zjawisk
 Stacja t tx tn tng RH VA  wxwx mslp ppp RRR   cm mm wxwxwxwxwxwxwx
1952-02-15 -4.8 -2.3 -5.4- 93.8- 8.0 2.3---- 0.7-- 48---------
1952-02-16 -5.0 -3.1 -5.9- 94.8- 8.0 2.0---- 0.7-- 47---------
1952-02-17 -4.2 -1.9 -9.4- 88.5- 8.0 3.3---- 7.2-- 47---------
1952-02-18 -3.6 -1.7 -4.1- 87.3- 8.0 3.3---- 4.8-- 53---------
1952-02-19 -5.5 -3.1 -8.0- 88.3- 8.0 2.0---- 1.1-- 56---------
1952-02-20 -3.0 -1.3 -6.9- 95.0- 8.0 3.0---- 4.1-- 57---------
1952-02-21 -1.2 2.8-14.5- 93.0- 8.0 4.7---- 2.1-- 62---------
1952-02-22 3.0 4.7 2.3- 84.0- 8.0 13.3---- 4.2-- 47---------
1952-02-23 2.6 3.8 1.6- 82.5- 8.0 10.3---- 1.1-- 37---------
1952-02-24 1.1 3.3 0.1- 79.5- 8.0 5.3---- 0.0-- 32---------
1952-02-25 -2.4 0.6 -4.9- 80.0- 6.3 3.7---- 0.0-- 27---------
1952-02-26 -0.2 1.3 -3.8- 84.0- 8.0 3.7---- 15.1-- 27---------
1952-02-27 -0.4 1.3 -0.9- 98.0- 8.0 3.7---- 1.5-- 32---------
1952-02-28 -2.9 -0.1 -3.4- 94.0- 8.0 4.7---- 1.4-- 33---------
1952-02-29 -0.9 1.0 -3.5- 97.3- 8.0 1.0---- 2.9-- 35---------
1952-03-01 -1.0 1.6 -2.0- 86.3- 8.0 8.3---- 1.1-- 37---------
1952-03-02 -3.0 -1.2 -6.6- 64.3- 5.7 7.3---- 1.9-- 40---------
1952-03-03 1.2 4.4 -3.6- 91.5- 8.0 2.3---- 3.4-- 42---------
1952-03-04 -8.2 2.3-14.8- 84.8- 5.7 2.0---- 0.8-- 33---------
1952-03-05-11.1 -6.1-20.2- 84.0- 7.7 2.7---- 3.0-- 32---------
1952-03-06 -9.7 -8.0-13.0- 86.3- 8.0 7.7---- 8.0-- 42---------
1952-03-07 -8.9 -6.0-11.0- 81.5- 8.0 2.7---- 0.9-- 57---------
1952-03-08-12.6 -3.7-15.5- 80.8- 1.7 1.7---- 0.0-- 60---------
1952-03-09 -8.0 3.3-21.0- 62.5- 0.0 2.3---- 0.0-- 55---------
1952-03-10 -6.4 5.5-15.5- 58.5- 0.0 3.0---- 0.0-- 45---------
1952-03-11 -4.9 9.6-14.5- 57.8- 0.0 1.0---- 0.0-- 43---------
1952-03-12 -3.7 7.3-12.0- 66.5- 0.0 1.0---- 0.0-- 40---------
1952-03-13 -0.9 3.6 -8.8- 84.0- 6.3 3.7---- 2.3-- 38---------
1952-03-14 -4.0 0.8 -8.0- 90.5- 5.7 6.0---- 1.8-- 44---------
1952-03-15-11.6 -0.7-22.5- 74.5- 0.0 2.3---- 0.0-- 45---------
124.3 ms

 

Źródłem pochodzenia danych jest Instytut Meteorologii i Gospodarki Wodnej – Państwowy Instytut Badawczy. Dane Instytutu Meteorologii i Gospodarki Wodnej – Państwowego Instytutu Badawczego zostały przetworzone.

Dane źródłowe można odnaleźć na stronie https://dane.imgw.pl